Time;durP1;ratioP1;P1;durP2;ratioP2;P2;SDS_P1;SDS_P2;PMS_P1;PMS_P2;Temp;Humidity;BMP_temperature;BMP_pressure;BME280_temperature;BME280_humidity;BME280_pressure;Samples;Min_cycle;Max_cycle;Signal;HPM_P1;HPM_P2
2021/11/15 00:01:44;;;;;;;3.65;1.67;;;;;;;;;;21174503;28;20135;-60
2021/11/15 00:11:46;;;;;;;3.65;1.52;;;;;;;;;;21173089;28;20496;-60
2021/11/15 00:21:48;;;;;;;3.40;1.20;;;;;;;;;;21172097;28;20096;-59
2021/11/15 00:31:50;;;;;;;3.60;1.20;;;;;;;;;;21170680;28;20055;-60
2021/11/15 00:41:52;;;;;;;5.88;3.30;;;;;;;;;;21172105;28;20052;-60
2021/11/15 00:51:53;;;;;;;8.90;2.58;;;;;;;;;;21169767;28;20055;-59
2021/11/15 01:01:56;;;;;;;3.97;1.80;;;;;;;;;;21169187;28;20043;-61
2021/11/15 01:11:59;;;;;;;3.92;1.60;;;;;;;;;;21169113;28;20047;-60
2021/11/15 01:22:01;;;;;;;3.75;0.95;;;;;;;;;;21159287;28;20377;-58
2021/11/15 01:32:02;;;;;;;2.38;1.10;;;;;;;;;;21167100;28;20064;-59
2021/11/15 01:42:04;;;;;;;2.47;0.90;;;;;;;;;;21166348;28;20048;-59
2021/11/15 01:52:07;;;;;;;1.08;0.80;;;;;;;;;;21146772;28;20055;-60
2021/11/15 02:02:10;;;;;;;1.20;0.75;;;;;;;;;;21165259;28;20047;-60
2021/11/15 02:12:11;;;;;;;1.30;0.70;;;;;;;;;;21164962;28;20093;-60
2021/11/15 02:22:15;;;;;;;1.13;0.52;;;;;;;;;;21163404;28;20039;-62
2021/11/15 02:32:19;;;;;;;0.75;0.30;;;;;;;;;;21162644;28;20055;-62
2021/11/15 02:42:24;;;;;;;1.07;0.63;;;;;;;;;;21162780;28;20407;-61
2021/11/15 02:52:30;;;;;;;0.65;0.38;;;;;;;;;;21162324;28;20055;-60
2021/11/15 03:02:37;;;;;;;3.58;2.08;;;;;;;;;;21175079;28;20058;-61
2021/11/15 03:12:48;;;;;;;10.30;3.70;;;;;;;;;;21178553;28;20052;-62
2021/11/15 03:22:54;;;;;;;5.07;2.38;;;;;;;;;;21177020;28;20138;-60
2021/11/15 03:33:16;;;;;;;4.50;2.28;;;;;;;;;;21175400;28;20056;-61
2021/11/15 03:43:38;;;;;;;3.90;1.48;;;;;;;;;;21175305;28;20047;-60
2021/11/15 03:53:59;;;;;;;2.45;1.00;;;;;;;;;;21174524;28;20047;-60
2021/11/15 04:04:16;;;;;;;0.45;0.32;;;;;;;;;;21173624;28;20139;-60
2021/11/15 04:14:19;;;;;;;0.40;0.40;;;;;;;;;;21172516;28;20054;-61
2021/11/15 04:24:26;;;;;;;0.40;0.38;;;;;;;;;;21172304;28;20055;-59
2021/11/15 04:34:30;;;;;;;1.58;0.70;;;;;;;;;;21171310;28;20453;-59
2021/11/15 04:44:35;;;;;;;1.33;0.32;;;;;;;;;;21171052;28;20407;-61
2021/11/15 04:54:41;;;;;;;1.23;0.40;;;;;;;;;;21170059;28;20052;-60
2021/11/15 05:04:45;;;;;;;0.47;0.40;;;;;;;;;;21169004;28;20071;-60
2021/11/15 05:14:47;;;;;;;1.17;0.50;;;;;;;;;;21168051;28;20055;-61
2021/11/15 05:24:50;;;;;;;0.52;0.40;;;;;;;;;;21165979;28;20066;-60
2021/11/15 05:34:54;;;;;;;0.63;0.45;;;;;;;;;;21166045;28;20079;-61
2021/11/15 05:44:57;;;;;;;0.50;0.38;;;;;;;;;;21165463;28;20073;-60
2021/11/15 05:55:00;;;;;;;1.27;0.50;;;;;;;;;;21165306;28;20134;-61
2021/11/15 06:05:02;;;;;;;1.02;0.80;;;;;;;;;;21164462;28;20055;-60
2021/11/15 06:15:05;;;;;;;3.33;0.93;;;;;;;;;;21163844;28;20454;-62
2021/11/15 06:25:09;;;;;;;2.23;1.00;;;;;;;;;;21162533;28;20047;-61
2021/11/15 06:35:13;;;;;;;0.80;0.50;;;;;;;;;;21182109;28;20499;-61
2021/11/15 06:45:15;;;;;;;3.97;0.60;;;;;;;;;;21190409;28;20043;-60
2021/11/15 06:55:19;;;;;;;1.40;0.70;;;;;;;;;;21192598;28;20094;-60
2021/11/15 07:05:24;;;;;;;1.17;0.40;;;;;;;;;;21190926;28;20138;-60
2021/11/15 07:15:26;;;;;;;1.45;0.50;;;;;;;;;;21189504;28;20055;-60
2021/11/15 07:25:30;;;;;;;2.75;0.52;;;;;;;;;;21188459;28;20052;-61
2021/11/15 07:35:32;;;;;;;2.30;0.60;;;;;;;;;;21189584;28;20048;-61
2021/11/15 07:45:37;;;;;;;1.67;0.70;;;;;;;;;;21179917;28;20079;-61
2021/11/15 07:55:42;;;;;;;1.10;0.55;;;;;;;;;;21174429;28;20448;-61
2021/11/15 08:05:45;;;;;;;1.23;0.53;;;;;;;;;;21173761;28;20384;-60
2021/11/15 08:15:47;;;;;;;2.10;0.80;;;;;;;;;;21172525;28;20055;-61
2021/11/15 08:25:57;;;;;;;1.57;0.60;;;;;;;;;;21171004;28;20457;-61
2021/11/15 08:36:00;;;;;;;1.17;0.70;;;;;;;;;;21170550;28;20048;-62
2021/11/15 08:46:03;;;;;;;2.20;0.68;;;;;;;;;;21171349;28;20062;-61
2021/11/15 08:56:07;;;;;;;3.75;0.80;;;;;;;;;;21168573;28;20047;-61
2021/11/15 09:06:11;;;;;;;1.95;0.95;;;;;;;;;;21169197;28;20048;-60
2021/11/15 09:16:15;;;;;;;1.35;1.00;;;;;;;;;;21168142;28;20073;-60
2021/11/15 09:26:20;;;;;;;3.45;1.10;;;;;;;;;;21148403;28;20469;-60
2021/11/15 09:36:24;;;;;;;2.57;0.80;;;;;;;;;;21166292;28;20048;-61
2021/11/15 09:46:31;;;;;;;0.93;0.52;;;;;;;;;;21165400;28;20384;-60
2021/11/15 09:56:37;;;;;;;1.25;0.60;;;;;;;;;;21164850;28;20498;-59
2021/11/15 10:06:39;;;;;;;1.67;0.60;;;;;;;;;;21164061;28;20044;-59
2021/11/15 10:16:48;;;;;;;2.25;0.60;;;;;;;;;;21162576;28;20048;-65
2021/11/15 10:26:55;;;;;;;2.10;0.73;;;;;;;;;;21162645;28;20044;-63
2021/11/15 10:37:16;;;;;;;1.05;0.68;;;;;;;;;;21162046;28;20052;-60
2021/11/15 10:47:18;;;;;;;3.50;0.75;;;;;;;;;;21161494;28;20066;-57
2021/11/15 10:57:20;;;;;;;8.68;1.10;;;;;;;;;;21161595;28;20054;-57
2021/11/15 11:07:23;;;;;;;4.05;0.80;;;;;;;;;;21161386;28;20381;-64
2021/11/15 11:17:25;;;;;;;3.58;0.70;;;;;;;;;;21163202;28;20094;-53
2021/11/15 11:27:28;;;;;;;2.53;0.60;;;;;;;;;;21175607;28;20115;-58
2021/11/15 11:37:31;;;;;;;2.22;0.60;;;;;;;;;;21175315;28;20062;-54
2021/11/15 11:47:34;;;;;;;1.20;0.70;;;;;;;;;;21175117;28;20857;-60
2021/11/15 11:57:37;;;;;;;2.80;1.30;;;;;;;;;;21174930;28;20120;-52
2021/11/15 12:07:54;;;;;;;5.10;1.02;;;;;;;;;;21172551;28;20506;-54
2021/11/15 12:18:17;;;;;;;2.08;0.70;;;;;;;;;;21171908;28;20058;-54
2021/11/15 12:28:28;;;;;;;1.00;0.60;;;;;;;;;;21170778;28;20098;-54
2021/11/15 12:38:39;;;;;;;1.33;0.70;;;;;;;;;;21170613;28;20511;-55
2021/11/15 12:48:46;;;;;;;1.80;0.55;;;;;;;;;;21151180;28;20503;-54
2021/11/15 12:58:49;;;;;;;0.70;0.50;;;;;;;;;;21167899;28;20044;-55
2021/11/15 13:08:53;;;;;;;1.10;0.50;;;;;;;;;;21167723;28;20108;-57
2021/11/15 13:18:55;;;;;;;1.25;0.63;;;;;;;;;;21167353;28;20047;-57
2021/11/15 13:28:58;;;;;;;0.90;0.50;;;;;;;;;;21165388;28;20104;-58
2021/11/15 13:39:04;;;;;;;1.57;0.70;;;;;;;;;;21147399;28;20044;-59
2021/11/15 13:49:08;;;;;;;1.48;0.60;;;;;;;;;;21129703;28;20526;-58
2021/11/15 13:59:11;;;;;;;0.93;0.50;;;;;;;;;;21164746;28;20051;-58
2021/11/15 14:09:14;;;;;;;1.15;0.60;;;;;;;;;;21145972;28;20131;-58
2021/11/15 14:19:17;;;;;;;2.58;1.15;;;;;;;;;;21163721;28;20054;-58
2021/11/15 14:29:19;;;;;;;0.77;0.50;;;;;;;;;;21162343;28;20055;-60
2021/11/15 14:39:22;;;;;;;2.15;0.60;;;;;;;;;;21162949;28;20532;-57
2021/11/15 14:49:25;;;;;;;0.88;0.40;;;;;;;;;;21161814;28;20051;-58
2021/11/15 14:59:27;;;;;;;0.70;0.50;;;;;;;;;;21179387;28;20380;-59
2021/11/15 15:09:31;;;;;;;0.93;0.68;;;;;;;;;;21177794;28;20043;-58
2021/11/15 15:20:02;;;;;;;1.67;0.50;;;;;;;;;;21177484;28;20126;-58
2021/11/15 15:30:03;;;;;;;1.37;0.60;;;;;;;;;;21176170;28;20395;-58
2021/11/15 15:40:07;;;;;;;1.97;0.70;;;;;;;;;;21175580;28;20044;-55
2021/11/15 15:50:10;;;;;;;1.55;0.60;;;;;;;;;;21155809;28;20408;-59
2021/11/15 16:00:12;;;;;;;4.85;0.95;;;;;;;;;;21174016;28;20497;-64
2021/11/15 16:20:27;;;;;;;2.22;0.70;;;;;;;;;;21172841;28;20135;-57
2021/11/15 16:30:30;;;;;;;3.33;1.45;;;;;;;;;;21171065;28;20051;-56
2021/11/15 16:40:32;;;;;;;1.35;0.77;;;;;;;;;;21171522;28;20048;-65
2021/11/15 16:50:34;;;;;;;4.13;0.70;;;;;;;;;;21169967;28;20104;-64
2021/11/15 17:00:38;;;;;;;5.25;1.27;;;;;;;;;;21170579;28;20055;-63
2021/11/15 17:10:44;;;;;;;6.47;1.17;;;;;;;;;;21169029;28;20052;-56
2021/11/15 17:20:50;;;;;;;3.38;0.85;;;;;;;;;;21166829;28;20404;-56
2021/11/15 17:30:52;;;;;;;2.67;0.93;;;;;;;;;;21166492;28;20063;-61
2021/11/15 17:40:54;;;;;;;2.40;0.90;;;;;;;;;;21166456;28;20047;-68
2021/11/15 17:50:58;;;;;;;2.13;1.10;;;;;;;;;;21164301;28;20051;-62
2021/11/15 18:01:01;;;;;;;2.50;1.33;;;;;;;;;;21164490;28;20044;-63
2021/11/15 18:11:03;;;;;;;5.15;1.60;;;;;;;;;;21146822;28;20492;-59
2021/11/15 18:21:07;;;;;;;7.03;3.85;;;;;;;;;;21140807;28;20488;-59
2021/11/15 18:31:09;;;;;;;4.45;2.22;;;;;;;;;;21131146;28;20056;-56
2021/11/15 18:41:13;;;;;;;6.93;3.40;;;;;;;;;;21143865;28;20044;-59
2021/11/15 18:51:18;;;;;;;4.67;2.20;;;;;;;;;;21160821;28;20054;-59
2021/11/15 19:01:20;;;;;;;3.97;1.80;;;;;;;;;;21161436;28;20044;-59
2021/11/15 19:21:35;;;;;;;6.80;2.72;;;;;;;;;;21161577;28;20040;-60
2021/11/15 19:31:42;;;;;;;8.40;2.67;;;;;;;;;;21159155;28;20056;-60
2021/11/15 19:41:44;;;;;;;10.07;3.50;;;;;;;;;;21166448;28;20484;-57
2021/11/15 19:51:52;;;;;;;5.40;2.90;;;;;;;;;;21173177;28;20052;-58
2021/11/15 20:01:54;;;;;;;5.85;3.63;;;;;;;;;;21172772;28;20511;-58
2021/11/15 20:11:56;;;;;;;5.00;2.15;;;;;;;;;;21171426;28;20059;-55
2021/11/15 20:21:58;;;;;;;3.72;1.42;;;;;;;;;;21170863;28;20047;-57
2021/11/15 20:31:59;;;;;;;2.30;1.20;;;;;;;;;;21169432;28;20063;-56
2021/11/15 20:42:01;;;;;;;3.45;1.45;;;;;;;;;;21169723;28;20048;-57
2021/11/15 20:52:04;;;;;;;3.15;1.40;;;;;;;;;;21170007;28;20088;-58
2021/11/15 21:02:05;;;;;;;4.05;1.65;;;;;;;;;;21169545;28;20067;-57
2021/11/15 21:12:08;;;;;;;3.63;1.33;;;;;;;;;;21168224;28;20104;-59
2021/11/15 21:22:09;;;;;;;1.75;1.20;;;;;;;;;;21167383;28;20043;-58
2021/11/15 21:32:11;;;;;;;4.05;1.80;;;;;;;;;;21092248;28;20055;-57
2021/11/15 21:42:13;;;;;;;2.53;1.23;;;;;;;;;;21081706;28;20072;-58
2021/11/15 21:52:17;;;;;;;4.13;1.50;;;;;;;;;;21081034;28;20472;-57
2021/11/15 22:02:22;;;;;;;2.50;1.20;;;;;;;;;;21079398;28;20067;-58
2021/11/15 22:12:24;;;;;;;3.50;1.70;;;;;;;;;;21079689;28;20056;-56
2021/11/15 22:22:26;;;;;;;4.45;2.15;;;;;;;;;;21079147;28;20048;-57
2021/11/15 22:32:27;;;;;;;6.72;2.25;;;;;;;;;;21154014;28;20077;-60
2021/11/15 22:42:30;;;;;;;3.50;2.15;;;;;;;;;;21144306;28;20054;-57
2021/11/15 22:52:32;;;;;;;2.60;1.60;;;;;;;;;;21162100;28;20051;-57
2021/11/15 23:02:34;;;;;;;3.47;1.52;;;;;;;;;;21161657;28;20040;-59
2021/11/15 23:12:36;;;;;;;4.07;2.55;;;;;;;;;;21162491;28;20144;-58
2021/11/15 23:22:38;;;;;;;7.07;2.78;;;;;;;;;;21177647;28;20083;-57
2021/11/15 23:32:40;;;;;;;4.45;2.70;;;;;;;;;;21176557;28;20109;-57
2021/11/15 23:42:42;;;;;;;6.68;3.78;;;;;;;;;;21176740;28;20089;-57
2021/11/15 23:52:44;;;;;;;3.25;2.00;;;;;;;;;;21174999;28;20059;-59
